sensor_id;sensor_type;location;lat;lon;timestamp;P1;durP1;ratioP1;P2;durP2;ratioP2
63551;SDS011;49698;48.072;7.800;2024-02-21T00:01:41;32.53;;;31.45;;
63551;SDS011;49698;48.072;7.800;2024-02-21T00:04:09;30.65;;;29.65;;
63551;SDS011;49698;48.072;7.800;2024-02-21T00:06:37;35.65;;;34.45;;
63551;SDS011;49698;48.072;7.800;2024-02-21T00:09:06;31.30;;;30.30;;
63551;SDS011;49698;48.072;7.800;2024-02-21T00:11:36;29.88;;;28.88;;
63551;SDS011;49698;48.072;7.800;2024-02-21T00:14:04;31.55;;;30.33;;
63551;SDS011;49698;48.072;7.800;2024-02-21T00:16:32;32.15;;;31.05;;
63551;SDS011;49698;48.072;7.800;2024-02-21T00:19:00;32.00;;;30.90;;
63551;SDS011;49698;48.072;7.800;2024-02-21T00:21:28;21.80;;;20.88;;
63551;SDS011;49698;48.072;7.800;2024-02-21T00:23:57;15.63;;;15.13;;
63551;SDS011;49698;48.072;7.800;2024-02-21T00:26:26;17.27;;;16.70;;
63551;SDS011;49698;48.072;7.800;2024-02-21T00:28:54;18.05;;;17.45;;
63551;SDS011;49698;48.072;7.800;2024-02-21T00:31:22;15.88;;;15.38;;
63551;SDS011;49698;48.072;7.800;2024-02-21T00:33:50;31.60;;;30.50;;
63551;SDS011;49698;48.072;7.800;2024-02-21T00:36:18;31.77;;;30.65;;
63551;SDS011;49698;48.072;7.800;2024-02-21T00:38:46;29.50;;;28.40;;
63551;SDS011;49698;48.072;7.800;2024-02-21T00:41:14;30.77;;;29.70;;
63551;SDS011;49698;48.072;7.800;2024-02-21T00:43:44;20.88;;;20.13;;
63551;SDS011;49698;48.072;7.800;2024-02-21T00:46:12;33.25;;;32.15;;
63551;SDS011;49698;48.072;7.800;2024-02-21T00:48:40;32.83;;;31.73;;
63551;SDS011;49698;48.072;7.800;2024-02-21T00:51:08;33.47;;;32.38;;
63551;SDS011;49698;48.072;7.800;2024-02-21T00:53:36;27.30;;;26.40;;
63551;SDS011;49698;48.072;7.800;2024-02-21T00:56:05;30.52;;;29.52;;
63551;SDS011;49698;48.072;7.800;2024-02-21T00:58:33;29.08;;;28.08;;
63551;SDS011;49698;48.072;7.800;2024-02-21T01:01:03;29.23;;;28.23;;
63551;SDS011;49698;48.072;7.800;2024-02-21T01:03:31;30.20;;;29.20;;
63551;SDS011;49698;48.072;7.800;2024-02-21T01:05:59;33.47;;;32.38;;
63551;SDS011;49698;48.072;7.800;2024-02-21T01:08:27;35.38;;;34.17;;
63551;SDS011;49698;48.072;7.800;2024-02-21T01:10:55;32.88;;;31.77;;
63551;SDS011;49698;48.072;7.800;2024-02-21T01:13:23;29.13;;;28.13;;
63551;SDS011;49698;48.072;7.800;2024-02-21T01:15:51;31.80;;;30.77;;
63551;SDS011;49698;48.072;7.800;2024-02-21T01:18:21;32.63;;;31.52;;
63551;SDS011;49698;48.072;7.800;2024-02-21T01:20:49;27.90;;;27.00;;
63551;SDS011;49698;48.072;7.800;2024-02-21T01:23:19;30.20;;;29.20;;
63551;SDS011;49698;48.072;7.800;2024-02-21T01:25:47;28.52;;;27.63;;
63551;SDS011;49698;48.072;7.800;2024-02-21T01:28:15;28.52;;;27.63;;
63551;SDS011;49698;48.072;7.800;2024-02-21T01:30:43;29.65;;;28.65;;
63551;SDS011;49698;48.072;7.800;2024-02-21T01:33:11;27.45;;;26.55;;
63551;SDS011;49698;48.072;7.800;2024-02-21T01:35:40;26.73;;;25.83;;
63551;SDS011;49698;48.072;7.800;2024-02-21T01:38:08;27.20;;;26.30;;
63551;SDS011;49698;48.072;7.800;2024-02-21T01:40:37;28.90;;;27.95;;
63551;SDS011;49698;48.072;7.800;2024-02-21T01:43:14;30.60;;;29.60;;
63551;SDS011;49698;48.072;7.800;2024-02-21T01:45:43;25.50;;;24.70;;
63551;SDS011;49698;48.072;7.800;2024-02-21T01:48:14;24.75;;;23.95;;
63551;SDS011;49698;48.072;7.800;2024-02-21T01:50:44;26.15;;;25.30;;
63551;SDS011;49698;48.072;7.800;2024-02-21T01:53:13;23.15;;;22.38;;
63551;SDS011;49698;48.072;7.800;2024-02-21T01:55:45;26.95;;;26.05;;
63551;SDS011;49698;48.072;7.800;2024-02-21T01:58:13;33.42;;;32.33;;
63551;SDS011;49698;48.072;7.800;2024-02-21T02:03:11;26.65;;;25.75;;
63551;SDS011;49698;48.072;7.800;2024-02-21T02:05:45;25.75;;;24.95;;
63551;SDS011;49698;48.072;7.800;2024-02-21T02:08:14;27.67;;;26.77;;
63551;SDS011;49698;48.072;7.800;2024-02-21T02:10:42;31.13;;;30.13;;
63551;SDS011;49698;48.072;7.800;2024-02-21T02:13:11;26.48;;;25.58;;
63551;SDS011;49698;48.072;7.800;2024-02-21T02:15:39;25.83;;;25.00;;
63551;SDS011;49698;48.072;7.800;2024-02-21T02:18:08;27.65;;;26.75;;
63551;SDS011;49698;48.072;7.800;2024-02-21T02:20:37;26.88;;;25.98;;
63551;SDS011;49698;48.072;7.800;2024-02-21T02:23:08;27.13;;;26.23;;
63551;SDS011;49698;48.072;7.800;2024-02-21T02:25:40;29.00;;;28.05;;
63551;SDS011;49698;48.072;7.800;2024-02-21T02:28:08;29.15;;;28.15;;
63551;SDS011;49698;48.072;7.800;2024-02-21T02:30:36;26.95;;;26.05;;
63551;SDS011;49698;48.072;7.800;2024-02-21T02:33:04;28.92;;;27.98;;
63551;SDS011;49698;48.072;7.800;2024-02-21T02:35:33;31.13;;;30.13;;
63551;SDS011;49698;48.072;7.800;2024-02-21T02:38:02;31.67;;;30.63;;
63551;SDS011;49698;48.072;7.800;2024-02-21T02:40:30;31.88;;;30.85;;
63551;SDS011;49698;48.072;7.800;2024-02-21T02:43:00;36.42;;;35.22;;
63551;SDS011;49698;48.072;7.800;2024-02-21T02:45:28;30.15;;;29.15;;
63551;SDS011;49698;48.072;7.800;2024-02-21T02:47:56;31.63;;;30.60;;
63551;SDS011;49698;48.072;7.800;2024-02-21T02:50:24;31.05;;;30.05;;
63551;SDS011;49698;48.072;7.800;2024-02-21T02:52:53;33.10;;;32.00;;
63551;SDS011;49698;48.072;7.800;2024-02-21T02:55:22;26.42;;;25.52;;
63551;SDS011;49698;48.072;7.800;2024-02-21T02:57:50;30.08;;;29.08;;
63551;SDS011;49698;48.072;7.800;2024-02-21T03:00:19;30.20;;;29.20;;
63551;SDS011;49698;48.072;7.800;2024-02-21T03:02:48;27.30;;;26.40;;
63551;SDS011;49698;48.072;7.800;2024-02-21T03:05:17;29.42;;;28.45;;
63551;SDS011;49698;48.072;7.800;2024-02-21T03:07:47;28.73;;;27.77;;
63551;SDS011;49698;48.072;7.800;2024-02-21T03:10:16;29.90;;;28.90;;
63551;SDS011;49698;48.072;7.800;2024-02-21T03:12:45;27.80;;;26.90;;
63551;SDS011;49698;48.072;7.800;2024-02-21T03:15:13;28.23;;;27.33;;
63551;SDS011;49698;48.072;7.800;2024-02-21T03:17:43;31.85;;;30.83;;
63551;SDS011;49698;48.072;7.800;2024-02-21T03:20:11;30.50;;;29.50;;
63551;SDS011;49698;48.072;7.800;2024-02-21T03:22:40;34.85;;;33.67;;
63551;SDS011;49698;48.072;7.800;2024-02-21T03:25:08;37.80;;;36.55;;
63551;SDS011;49698;48.072;7.800;2024-02-21T03:27:37;33.05;;;31.95;;
63551;SDS011;49698;48.072;7.800;2024-02-21T03:30:06;33.73;;;32.63;;
63551;SDS011;49698;48.072;7.800;2024-02-21T03:32:34;36.60;;;35.40;;
63551;SDS011;49698;48.072;7.800;2024-02-21T03:40:00;39.80;;;38.50;;
63551;SDS011;49698;48.072;7.800;2024-02-21T03:42:28;38.90;;;37.60;;
63551;SDS011;49698;48.072;7.800;2024-02-21T03:44:58;36.53;;;35.33;;
63551;SDS011;49698;48.072;7.800;2024-02-21T03:47:26;34.35;;;33.25;;
63551;SDS011;49698;48.072;7.800;2024-02-21T03:49:54;36.75;;;35.55;;
63551;SDS011;49698;48.072;7.800;2024-02-21T03:52:23;35.40;;;34.20;;
63551;SDS011;49698;48.072;7.800;2024-02-21T03:54:51;32.33;;;31.23;;
63551;SDS011;49698;48.072;7.800;2024-02-21T03:57:21;35.40;;;34.20;;
63551;SDS011;49698;48.072;7.800;2024-02-21T03:59:50;31.13;;;30.13;;
63551;SDS011;49698;48.072;7.800;2024-02-21T04:02:18;31.95;;;30.90;;
63551;SDS011;49698;48.072;7.800;2024-02-21T04:04:46;31.38;;;30.38;;
63551;SDS011;49698;48.072;7.800;2024-02-21T04:07:15;29.60;;;28.50;;
63551;SDS011;49698;48.072;7.800;2024-02-21T04:09:44;15.73;;;15.23;;
63551;SDS011;49698;48.072;7.800;2024-02-21T04:12:12;22.70;;;21.88;;
63551;SDS011;49698;48.072;7.800;2024-02-21T04:14:40;25.33;;;24.52;;
63551;SDS011;49698;48.072;7.800;2024-02-21T04:17:08;14.20;;;13.73;;
63551;SDS011;49698;48.072;7.800;2024-02-21T04:19:36;17.17;;;16.60;;
63551;SDS011;49698;48.072;7.800;2024-02-21T04:22:05;15.30;;;14.85;;
63551;SDS011;49698;48.072;7.800;2024-02-21T04:24:33;17.27;;;16.67;;
63551;SDS011;49698;48.072;7.800;2024-02-21T04:27:04;16.13;;;15.63;;
63551;SDS011;49698;48.072;7.800;2024-02-21T04:29:32;20.98;;;20.27;;
63551;SDS011;49698;48.072;7.800;2024-02-21T04:32:01;21.55;;;20.85;;
63551;SDS011;49698;48.072;7.800;2024-02-21T04:34:29;21.20;;;20.53;;
63551;SDS011;49698;48.072;7.800;2024-02-21T04:36:57;18.40;;;17.80;;
63551;SDS011;49698;48.072;7.800;2024-02-21T04:39:26;25.10;;;24.30;;
63551;SDS011;49698;48.072;7.800;2024-02-21T04:41:54;27.52;;;26.63;;
63551;SDS011;49698;48.072;7.800;2024-02-21T04:44:23;20.02;;;19.40;;
63551;SDS011;49698;48.072;7.800;2024-02-21T04:46:51;14.10;;;13.65;;
63551;SDS011;49698;48.072;7.800;2024-02-21T04:51:47;20.02;;;19.38;;
63551;SDS011;49698;48.072;7.800;2024-02-21T04:54:15;15.68;;;15.18;;
63551;SDS011;49698;48.072;7.800;2024-02-21T04:56:43;19.23;;;18.63;;
63551;SDS011;49698;48.072;7.800;2024-02-21T04:59:11;19.90;;;19.25;;
63551;SDS011;49698;48.072;7.800;2024-02-21T05:01:41;20.98;;;20.27;;
63551;SDS011;49698;48.072;7.800;2024-02-21T05:04:09;22.77;;;22.05;;
63551;SDS011;49698;48.072;7.800;2024-02-21T05:06:37;27.63;;;26.73;;
63551;SDS011;49698;48.072;7.800;2024-02-21T05:11:35;26.80;;;25.90;;
63551;SDS011;49698;48.072;7.800;2024-02-21T05:14:03;23.73;;;22.92;;
63551;SDS011;49698;48.072;7.800;2024-02-21T05:16:31;23.73;;;22.92;;
63551;SDS011;49698;48.072;7.800;2024-02-21T05:23:59;26.05;;;25.17;;
63551;SDS011;49698;48.072;7.800;2024-02-21T05:26:27;23.40;;;22.63;;
63551;SDS011;49698;48.072;7.800;2024-02-21T05:28:55;25.77;;;24.93;;
63551;SDS011;49698;48.072;7.800;2024-02-21T05:31:26;23.52;;;22.73;;
63551;SDS011;49698;48.072;7.800;2024-02-21T05:34:12;23.30;;;22.50;;
63551;SDS011;49698;48.072;7.800;2024-02-21T05:36:40;23.98;;;23.17;;
63551;SDS011;49698;48.072;7.800;2024-02-21T05:39:08;27.75;;;26.85;;
63551;SDS011;49698;48.072;7.800;2024-02-21T05:41:36;22.70;;;22.00;;
63551;SDS011;49698;48.072;7.800;2024-02-21T05:44:04;25.52;;;24.73;;
63551;SDS011;49698;48.072;7.800;2024-02-21T05:46:33;23.23;;;22.42;;
63551;SDS011;49698;48.072;7.800;2024-02-21T05:49:01;18.52;;;17.92;;
63551;SDS011;49698;48.072;7.800;2024-02-21T05:54:01;17.35;;;16.75;;
63551;SDS011;49698;48.072;7.800;2024-02-21T05:56:29;17.55;;;16.95;;
63551;SDS011;49698;48.072;7.800;2024-02-21T05:58:57;19.60;;;19.00;;
63551;SDS011;49698;48.072;7.800;2024-02-21T06:01:25;23.13;;;22.35;;
63551;SDS011;49698;48.072;7.800;2024-02-21T06:03:53;21.10;;;20.40;;
63551;SDS011;49698;48.072;7.800;2024-02-21T06:06:21;20.80;;;20.10;;
63551;SDS011;49698;48.072;7.800;2024-02-21T06:08:50;21.00;;;20.30;;
63551;SDS011;49698;48.072;7.800;2024-02-21T06:11:19;14.75;;;14.30;;
63551;SDS011;49698;48.072;7.800;2024-02-21T06:13:47;21.02;;;20.33;;
63551;SDS011;49698;48.072;7.800;2024-02-21T06:16:15;26.33;;;25.48;;
63551;SDS011;49698;48.072;7.800;2024-02-21T06:18:43;31.65;;;30.55;;
63551;SDS011;49698;48.072;7.800;2024-02-21T06:21:11;32.15;;;31.05;;
63551;SDS011;49698;48.072;7.800;2024-02-21T06:31:04;23.10;;;22.30;;
63551;SDS011;49698;48.072;7.800;2024-02-21T06:33:32;24.13;;;23.33;;
63551;SDS011;49698;48.072;7.800;2024-02-21T06:36:00;22.30;;;21.60;;
63551;SDS011;49698;48.072;7.800;2024-02-21T06:40:56;23.88;;;23.08;;
63551;SDS011;49698;48.072;7.800;2024-02-21T07:08:08;42.10;;;40.70;;
63551;SDS011;49698;48.072;7.800;2024-02-21T07:10:36;38.40;;;37.10;;
63551;SDS011;49698;48.072;7.800;2024-02-21T09:09:28;24.02;;;23.23;;
63551;SDS011;49698;48.072;7.800;2024-02-21T09:14:32;20.67;;;19.98;;
63551;SDS011;49698;48.072;7.800;2024-02-21T09:17:01;19.70;;;19.05;;
63551;SDS011;49698;48.072;7.800;2024-02-21T09:19:30;18.65;;;18.05;;
63551;SDS011;49698;48.072;7.800;2024-02-21T09:21:58;16.67;;;16.17;;
63551;SDS011;49698;48.072;7.800;2024-02-21T09:24:26;16.10;;;15.60;;
63551;SDS011;49698;48.072;7.800;2024-02-21T09:26:54;17.52;;;16.92;;
63551;SDS011;49698;48.072;7.800;2024-02-21T09:29:22;16.15;;;15.65;;
63551;SDS011;49698;48.072;7.800;2024-02-21T09:31:51;18.23;;;17.63;;
63551;SDS011;49698;48.072;7.800;2024-02-21T09:34:21;21.95;;;21.25;;
63551;SDS011;49698;48.072;7.800;2024-02-21T09:36:49;20.60;;;19.90;;
63551;SDS011;49698;48.072;7.800;2024-02-21T09:39:17;23.30;;;22.50;;
63551;SDS011;49698;48.072;7.800;2024-02-21T09:41:47;17.38;;;16.77;;
63551;SDS011;49698;48.072;7.800;2024-02-21T09:44:19;18.48;;;17.88;;
63551;SDS011;49698;48.072;7.800;2024-02-21T09:46:50;17.95;;;17.35;;
63551;SDS011;49698;48.072;7.800;2024-02-21T09:56:57;17.52;;;16.92;;
63551;SDS011;49698;48.072;7.800;2024-02-21T09:59:26;15.95;;;15.45;;
63551;SDS011;49698;48.072;7.800;2024-02-21T10:01:55;20.50;;;19.80;;
63551;SDS011;49698;48.072;7.800;2024-02-21T10:04:23;17.50;;;16.90;;
63551;SDS011;49698;48.072;7.800;2024-02-21T10:06:53;21.05;;;20.35;;
63551;SDS011;49698;48.072;7.800;2024-02-21T10:09:21;22.02;;;21.33;;
63551;SDS011;49698;48.072;7.800;2024-02-21T10:11:50;19.52;;;18.92;;
63551;SDS011;49698;48.072;7.800;2024-02-21T10:14:18;18.73;;;18.13;;
63551;SDS011;49698;48.072;7.800;2024-02-21T10:16:47;18.98;;;18.38;;
63551;SDS011;49698;48.072;7.800;2024-02-21T10:19:16;20.88;;;20.17;;
63551;SDS011;49698;48.072;7.800;2024-02-21T10:21:59;18.17;;;17.58;;
63551;SDS011;49698;48.072;7.800;2024-02-21T10:24:30;18.05;;;17.45;;
63551;SDS011;49698;48.072;7.800;2024-02-21T10:26:59;21.50;;;20.80;;
63551;SDS011;49698;48.072;7.800;2024-02-21T10:29:28;16.70;;;16.20;;
63551;SDS011;49698;48.072;7.800;2024-02-21T10:32:05;20.25;;;19.55;;
63551;SDS011;49698;48.072;7.800;2024-02-21T10:34:35;18.83;;;18.23;;
63551;SDS011;49698;48.072;7.800;2024-02-21T10:37:06;18.20;;;17.60;;
63551;SDS011;49698;48.072;7.800;2024-02-21T10:39:36;17.55;;;16.95;;
63551;SDS011;49698;48.072;7.800;2024-02-21T10:42:05;20.90;;;20.20;;
63551;SDS011;49698;48.072;7.800;2024-02-21T10:44:36;19.67;;;19.08;;
63551;SDS011;49698;48.072;7.800;2024-02-21T10:47:07;22.27;;;21.58;;
63551;SDS011;49698;48.072;7.800;2024-02-21T10:49:38;26.65;;;25.75;;
63551;SDS011;49698;48.072;7.800;2024-02-21T10:52:09;23.33;;;22.52;;
63551;SDS011;49698;48.072;7.800;2024-02-21T10:54:44;23.67;;;22.88;;
63551;SDS011;49698;48.072;7.800;2024-02-21T10:57:16;20.75;;;20.05;;
